Carter, KY (41128)

6:08 AM EST on February 13, 2016 (GMT -0500)
Green | | Change Station
CLOSE
Current Station
Personal Weather Station
Location: Olive Hill, KY
Elevation: 883 ft
Nearby Weather Stations

Elev 883 ft 38.19 °N, 83.08 °W | Updated 6 minutes ago

Mostly Cloudy
Mostly Cloudy
14.4 °F
Feels Like 14 °F
N
0.0
Wind Variable Wind from North
Gusts 0.0 mph

Today
High -- | Low -- °F
--% Chance of Precip.
Yesterday
High -- | Low -- °F
Precip. -- in
Pressure 30.41 in
Visibility 10.0 miles
Clouds Scattered Clouds 3400 ft
Windchill 14 °F
Dew Point -13 °F
Humidity 27%
Rainfall Not available.
Snow Depth Not available.
7:25 AM 6:07 PM
Waxing Crescent, 29% visible
METAR KHTS 131051Z 32006KT 10SM BLSN SCT034 M09/M16 A3038 RMK AO2 SLP296 T10941161
Pressure 30.41 in
Visibility 10.0 miles
Clouds Scattered Clouds 3400 ft
Windchill 14 °F
Dew Point -13 °F
Humidity 27%
Rainfall Not available.
Snow Depth Not available.
7:25 AM 6:07 PM
Waxing Crescent, 29% visible
METAR KHTS 131051Z 32006KT 10SM BLSN SCT034 M09/M16 A3038 RMK AO2 SLP296 T10941161

10-Day Weather Forecast

Almanac

Astronomy

Feb. 13, 2016 Rise Set
Actual Time
Civil Twilight
Nautical Twilight
Astronomical Twilight
Moon
Length of Visible Light
Length of Day
Tomorrow will be .
, % of the Moon is Illuminated

Today's Extremes

State Highs State Lows

Community

WunderPhotos

Upload Photos

1,892,541 photos uploaded!

WunderBlog® & News

Nearby

Air Quality

  Air Quality AQ Index Pollutant
Not available.

Snow Depth

Station Depth Elevation

Earthquake Activity

City Distance Mag. Time & Date
Minimum magnitude displayed is 2.5.

Coastal Water Temperatures

Place Temperature

Stations

Nearby Weather Stations

Station Location Temp. Windchill Dew Point Humidity Wind Precip. Elev Updated Type
                   

Watches & Warnings

There are currently no watches in effect.